createdAt,value
2022-12-01T00:03:12.940Z,5158.354515050167
2022-12-01T00:14:13.500Z,5077.665551839465
2022-12-01T00:20:42.812Z,5158.103678929766
2022-12-01T00:27:10.816Z,5067.591973244147
2022-12-01T00:33:38.550Z,4965.2909698996655
2022-12-01T00:40:07.501Z,4854.260869565217
2022-12-01T00:48:15.634Z,4858.063545150501
2022-12-01T00:54:44.278Z,4806.120401337793
2022-12-01T01:06:44.042Z,4735.344481605352
2022-12-01T01:17:13.943Z,4628.107023411371
2022-12-01T01:23:42.028Z,4860.903010033445
2022-12-01T01:30:09.439Z,4886.608695652174
2022-12-01T01:36:36.559Z,5015.227424749164
2022-12-01T01:43:21.845Z,5172.010033444816
2022-12-01T01:50:18.794Z,5357.819397993311
2022-12-01T02:04:51.903Z,5766.421404682274
2022-12-01T02:12:08.221Z,5844.86287625418
2022-12-01T02:25:47.552Z,6006.361204013378
2022-12-01T02:37:33.229Z,6011.979933110368
2022-12-01T02:44:00.269Z,5984.036789297659
2022-12-01T02:50:26.978Z,5979.792642140468
2022-12-01T02:56:54.552Z,6144.030100334448
2022-12-01T03:03:21.746Z,6169.7959866220735
2022-12-01T03:09:49.389Z,6133.0133779264215
2022-12-01T03:23:45.968Z,6092.177257525083
2022-12-01T03:30:12.428Z,6088.515050167224
2022-12-01T03:48:27.375Z,6305.608695652174
2022-12-01T03:56:29.250Z,6370.354515050167
2022-12-01T04:02:56.031Z,6550.745819397994
2022-12-01T04:13:27.440Z,6562.725752508361
2022-12-01T04:19:53.593Z,6748.615384615385
2022-12-01T04:26:20.021Z,6847.505016722408
2022-12-01T04:44:31.576Z,6879.411371237458
2022-12-01T04:55:23.769Z,6918.301003344482
2022-12-01T05:01:52.779Z,6929.84949832776
2022-12-01T05:08:20.106Z,7146.832775919733
2022-12-01T05:18:09.319Z,7030.163879598662
2022-12-01T05:24:36.665Z,7043.026755852843
2022-12-01T05:31:02.957Z,7077.672240802675
2022-12-01T05:37:30.687Z,7161.722408026756
2022-12-01T05:48:03.211Z,7063.8561872909695
2022-12-01T05:54:30.216Z,7211.066889632107
2022-12-01T06:03:38.450Z,7080.882943143813
2022-12-01T06:13:41.204Z,7116.260869565217
2022-12-01T06:20:07.938Z,6997.946488294315
2022-12-01T06:26:42.304Z,6932.7692307692305
2022-12-01T06:33:11.410Z,6810.672240802675
2022-12-01T06:47:54.665Z,6976.966555183946
2022-12-01T06:54:22.347Z,6953.167224080267
2022-12-01T07:00:52.540Z,6966.411371237458
2022-12-01T07:07:22.535Z,6828.913043478261
2022-12-01T07:17:54.433Z,6841.976588628762
2022-12-01T07:24:23.249Z,6926.578595317726
2022-12-01T07:30:51.500Z,6733.484949832776
2022-12-01T07:37:19.115Z,6930.33110367893
2022-12-01T07:43:47.907Z,7099.334448160535
2022-12-01T07:50:15.801Z,6926.879598662207
2022-12-01T07:56:44.550Z,6949.234113712375
2022-12-01T08:03:13.033Z,7023.6822742474915
2022-12-01T08:11:41.646Z,6656.598662207358
2022-12-01T08:23:07.189Z,6603.260869565217
2022-12-01T08:44:15.473Z,6363.110367892977
2022-12-01T08:57:05.034Z,6105.491638795987
2022-12-01T09:03:34.679Z,6028.47491638796
2022-12-01T09:10:03.459Z,6113.719063545151
2022-12-01T09:16:33.017Z,5919.76254180602
2022-12-01T09:23:02.190Z,5978.026755852843
2022-12-01T09:41:27.182Z,5598.521739130435
2022-12-01T09:52:00.188Z,5662.916387959866
2022-12-01T10:03:10.332Z,5676.913043478261
2022-12-01T10:09:39.875Z,5711.749163879599
2022-12-01T10:16:08.698Z,5746.304347826087
2022-12-01T10:28:07.749Z,5524.324414715719
2022-12-01T10:42:56.143Z,5648.397993311037
2022-12-01T10:49:24.613Z,5621.438127090301
2022-12-01T10:59:12.787Z,5459.207357859532
2022-12-01T11:05:41.826Z,5269.90635451505
2022-12-01T11:12:10.559Z,5205.250836120401
2022-12-01T11:28:06.068Z,5307.1605351170565
2022-12-01T11:38:27.188Z,5204.919732441472
2022-12-01T11:49:25.712Z,5068.705685618729
2022-12-01T11:55:54.572Z,5315.939799331104
2022-12-01T12:02:23.730Z,5093.418060200669
2022-12-01T12:14:50.629Z,4881.702341137124
2022-12-01T12:27:25.828Z,5058.431438127091
2022-12-01T12:33:55.004Z,5318.197324414716
2022-12-01T12:40:24.060Z,5304.190635451505
2022-12-01T12:46:52.638Z,5161.95652173913
2022-12-01T12:53:21.626Z,5008.294314381271
2022-12-01T13:10:33.828Z,5056.244147157191
2022-12-01T13:18:06.596Z,4903.90635451505
2022-12-01T13:24:35.728Z,4861.565217391304
2022-12-01T13:31:04.378Z,4607.036789297659
2022-12-01T13:37:32.554Z,4647.722408026756
2022-12-01T13:43:59.971Z,4677.200668896321
2022-12-01T13:50:29.991Z,4951.434782608696
2022-12-01T14:15:55.371Z,4751.066889632107
2022-12-01T14:22:23.969Z,4906.52508361204
2022-12-01T14:36:39.556Z,4849.725752508361
2022-12-01T14:43:15.113Z,4702.4046822742475
2022-12-01T14:52:00.262Z,4639.966555183946
2022-12-01T14:58:28.041Z,4579.755852842809
2022-12-01T15:06:05.052Z,4542.190635451505
2022-12-01T15:18:55.784Z,4478.819397993311
2022-12-01T15:29:49.803Z,4565.006688963211
2022-12-01T15:36:17.967Z,4541.809364548495
2022-12-01T15:42:46.169Z,4630.394648829431
2022-12-01T15:49:13.013Z,4490.4481605351175
2022-12-01T16:03:30.454Z,4617.280936454849
2022-12-01T16:11:04.025Z,4666.324414715719
2022-12-01T16:17:31.679Z,4484.006688963211
2022-12-01T16:23:58.912Z,4192.47491638796
2022-12-01T16:36:40.771Z,4328.51839464883
2022-12-01T16:43:08.543Z,3838.6755852842807
2022-12-01T16:50:03.456Z,3544.4347826086955
2022-12-01T17:00:05.536Z,3320.3879598662206
2022-12-01T17:06:34.426Z,3414.200668896321
2022-12-01T17:13:01.222Z,3280.4046822742475
2022-12-01T17:22:12.308Z,3249.180602006689
2022-12-01T17:30:03.536Z,3105.1304347826085
2022-12-01T17:36:35.725Z,2945.9297658862874
2022-12-01T17:46:10.451Z,2989.5953177257525
2022-12-01T17:52:44.926Z,3081.3311036789296
2022-12-01T17:59:13.095Z,3098.879598662207
2022-12-01T18:05:42.967Z,3012.632107023411
2022-12-01T18:15:13.246Z,2932.6053511705686
2022-12-01T18:24:32.532Z,2929.0033444816054
2022-12-01T18:31:04.406Z,2979.1304347826085
2022-12-01T18:37:38.285Z,2775.6120401337794
2022-12-01T18:44:09.940Z,2836.6053511705686
2022-12-01T18:56:15.376Z,2793.561872909699
2022-12-01T19:11:30.328Z,2810.1973244147157
2022-12-01T19:18:08.263Z,2425.6354515050166
2022-12-01T19:24:52.980Z,2085.7725752508363
2022-12-01T19:31:42.342Z,2208.4113712374583
2022-12-01T19:38:22.493Z,2236.113712374582
2022-12-01T19:44:59.953Z,2419.314381270903
2022-12-01T19:51:32.022Z,2277.561872909699
2022-12-01T19:58:02.017Z,2260.274247491639
2022-12-01T20:04:35.331Z,2328.1404682274247
2022-12-01T20:11:17.639Z,2425.876254180602
2022-12-01T20:18:00.268Z,2432.61872909699
2022-12-01T20:24:34.561Z,2343.511705685619
2022-12-01T20:31:05.020Z,2333.638795986622
2022-12-01T20:51:50.147Z,2468.5083612040135
2022-12-01T20:58:19.433Z,2568.722408026756
2022-12-01T21:04:52.278Z,2543.3879598662206
2022-12-01T21:17:17.447Z,2746.7859531772574
2022-12-01T21:24:06.989Z,2794.6354515050166
2022-12-01T21:31:49.850Z,3177.561872909699
2022-12-01T21:40:05.339Z,3100.9866220735785
2022-12-01T21:56:04.980Z,3232.9966555183946
2022-12-01T22:06:47.484Z,3280.494983277592
2022-12-01T22:13:27.049Z,3388.2140468227426
2022-12-01T22:23:52.096Z,3364.9163879598664
2022-12-01T22:34:36.165Z,3331.735785953177
2022-12-01T22:41:11.976Z,3449.1471571906354
2022-12-01T22:47:41.292Z,3236.3177257525085
2022-12-01T23:05:03.698Z,3209.5785953177256
2022-12-01T23:14:49.210Z,3219.913043478261
2022-12-01T23:24:55.509Z,3192.782608695652
2022-12-01T23:31:26.036Z,3196.063545150502
2022-12-01T23:37:54.008Z,3287.0267558528426
2022-12-01T23:51:02.298Z,3360.0702341137126
